sensor_id;sensor_type;location;lat;lon;timestamp;P1;durP1;ratioP1;P2;durP2;ratioP2
65358;SDS011;52491;45.900;6.346;2022-08-19T00:01:21;2.08;;;1.98;;
65358;SDS011;52491;45.900;6.346;2022-08-19T00:03:47;2.30;;;2.10;;
65358;SDS011;52491;45.900;6.346;2022-08-19T00:06:14;2.50;;;1.98;;
65358;SDS011;52491;45.900;6.346;2022-08-19T00:08:40;1.67;;;1.58;;
65358;SDS011;52491;45.900;6.346;2022-08-19T00:11:06;4.85;;;2.50;;
65358;SDS011;52491;45.900;6.346;2022-08-19T00:13:32;2.40;;;2.10;;
65358;SDS011;52491;45.900;6.346;2022-08-19T00:15:59;2.13;;;1.90;;
65358;SDS011;52491;45.900;6.346;2022-08-19T00:18:25;1.85;;;1.75;;
65358;SDS011;52491;45.900;6.346;2022-08-19T00:20:51;2.03;;;1.92;;
65358;SDS011;52491;45.900;6.346;2022-08-19T00:23:17;1.70;;;1.60;;
65358;SDS011;52491;45.900;6.346;2022-08-19T00:25:44;2.38;;;2.17;;
65358;SDS011;52491;45.900;6.346;2022-08-19T00:28:09;3.08;;;2.00;;
65358;SDS011;52491;45.900;6.346;2022-08-19T00:30:36;1.77;;;1.67;;
65358;SDS011;52491;45.900;6.346;2022-08-19T00:33:02;2.22;;;2.03;;
65358;SDS011;52491;45.900;6.346;2022-08-19T00:35:28;1.90;;;1.80;;
65358;SDS011;52491;45.900;6.346;2022-08-19T00:37:54;1.63;;;1.52;;
65358;SDS011;52491;45.900;6.346;2022-08-19T00:40:19;2.72;;;2.47;;
65358;SDS011;52491;45.900;6.346;2022-08-19T00:42:45;2.03;;;1.90;;
65358;SDS011;52491;45.900;6.346;2022-08-19T00:45:14;2.22;;;2.08;;
65358;SDS011;52491;45.900;6.346;2022-08-19T00:47:43;2.28;;;1.80;;
65358;SDS011;52491;45.900;6.346;2022-08-19T00:50:11;2.25;;;2.13;;
65358;SDS011;52491;45.900;6.346;2022-08-19T00:52:41;2.08;;;1.88;;
65358;SDS011;52491;45.900;6.346;2022-08-19T00:55:10;1.83;;;1.73;;
65358;SDS011;52491;45.900;6.346;2022-08-19T00:57:42;1.67;;;1.58;;
65358;SDS011;52491;45.900;6.346;2022-08-19T01:00:12;2.22;;;2.13;;
65358;SDS011;52491;45.900;6.346;2022-08-19T01:02:42;2.00;;;1.90;;
65358;SDS011;52491;45.900;6.346;2022-08-19T01:05:09;1.77;;;1.60;;
65358;SDS011;52491;45.900;6.346;2022-08-19T01:07:38;2.95;;;2.20;;
65358;SDS011;52491;45.900;6.346;2022-08-19T01:10:10;2.90;;;2.10;;
65358;SDS011;52491;45.900;6.346;2022-08-19T01:12:39;3.65;;;2.40;;
65358;SDS011;52491;45.900;6.346;2022-08-19T01:15:05;1.70;;;1.60;;
65358;SDS011;52491;45.900;6.346;2022-08-19T01:17:34;1.90;;;1.80;;
65358;SDS011;52491;45.900;6.346;2022-08-19T01:20:04;1.92;;;1.70;;
65358;SDS011;52491;45.900;6.346;2022-08-19T01:22:36;1.75;;;1.63;;
65358;SDS011;52491;45.900;6.346;2022-08-19T01:25:17;2.17;;;2.08;;
65358;SDS011;52491;45.900;6.346;2022-08-19T01:27:46;2.33;;;1.90;;
65358;SDS011;52491;45.900;6.346;2022-08-19T01:30:16;2.03;;;1.90;;
65358;SDS011;52491;45.900;6.346;2022-08-19T01:32:45;1.75;;;1.65;;
65358;SDS011;52491;45.900;6.346;2022-08-19T01:35:12;2.55;;;2.20;;
65358;SDS011;52491;45.900;6.346;2022-08-19T01:37:45;3.00;;;1.95;;
65358;SDS011;52491;45.900;6.346;2022-08-19T01:40:17;2.20;;;2.00;;
65358;SDS011;52491;45.900;6.346;2022-08-19T01:42:46;2.20;;;2.00;;
65358;SDS011;52491;45.900;6.346;2022-08-19T01:45:12;2.20;;;1.88;;
65358;SDS011;52491;45.900;6.346;2022-08-19T01:47:39;4.30;;;2.33;;
65358;SDS011;52491;45.900;6.346;2022-08-19T01:50:05;1.90;;;1.80;;
65358;SDS011;52491;45.900;6.346;2022-08-19T01:52:34;1.98;;;1.80;;
65358;SDS011;52491;45.900;6.346;2022-08-19T01:55:05;2.30;;;2.10;;
65358;SDS011;52491;45.900;6.346;2022-08-19T01:57:33;2.00;;;1.90;;
65358;SDS011;52491;45.900;6.346;2022-08-19T01:59:59;2.08;;;1.98;;
65358;SDS011;52491;45.900;6.346;2022-08-19T02:02:27;2.42;;;2.15;;
65358;SDS011;52491;45.900;6.346;2022-08-19T02:04:52;2.33;;;2.13;;
65358;SDS011;52491;45.900;6.346;2022-08-19T02:07:19;2.35;;;2.10;;
65358;SDS011;52491;45.900;6.346;2022-08-19T02:09:46;2.15;;;1.95;;
65358;SDS011;52491;45.900;6.346;2022-08-19T02:12:13;1.95;;;1.85;;
65358;SDS011;52491;45.900;6.346;2022-08-19T02:14:39;1.63;;;1.52;;
65358;SDS011;52491;45.900;6.346;2022-08-19T02:17:05;2.17;;;2.05;;
65358;SDS011;52491;45.900;6.346;2022-08-19T02:19:31;3.20;;;2.85;;
65358;SDS011;52491;45.900;6.346;2022-08-19T02:22:00;1.83;;;1.73;;
65358;SDS011;52491;45.900;6.346;2022-08-19T02:24:26;2.15;;;1.95;;
65358;SDS011;52491;45.900;6.346;2022-08-19T02:26:52;2.10;;;2.00;;
65358;SDS011;52491;45.900;6.346;2022-08-19T02:29:18;2.55;;;1.73;;
65358;SDS011;52491;45.900;6.346;2022-08-19T02:31:44;2.20;;;2.00;;
65358;SDS011;52491;45.900;6.346;2022-08-19T02:34:10;1.88;;;1.77;;
65358;SDS011;52491;45.900;6.346;2022-08-19T02:36:36;2.05;;;1.95;;
65358;SDS011;52491;45.900;6.346;2022-08-19T02:39:02;2.65;;;2.45;;
65358;SDS011;52491;45.900;6.346;2022-08-19T02:41:30;1.73;;;1.63;;
65358;SDS011;52491;45.900;6.346;2022-08-19T02:43:59;2.25;;;2.13;;
65358;SDS011;52491;45.900;6.346;2022-08-19T02:46:27;2.60;;;2.20;;
65358;SDS011;52491;45.900;6.346;2022-08-19T02:49:03;4.07;;;1.95;;
65358;SDS011;52491;45.900;6.346;2022-08-19T02:51:32;2.22;;;2.00;;
65358;SDS011;52491;45.900;6.346;2022-08-19T02:54:06;2.28;;;2.17;;
65358;SDS011;52491;45.900;6.346;2022-08-19T02:56:37;2.20;;;1.83;;
65358;SDS011;52491;45.900;6.346;2022-08-19T02:59:04;2.10;;;1.95;;
65358;SDS011;52491;45.900;6.346;2022-08-19T03:01:39;1.98;;;1.88;;
65358;SDS011;52491;45.900;6.346;2022-08-19T03:04:10;1.70;;;1.48;;
65358;SDS011;52491;45.900;6.346;2022-08-19T03:06:57;2.00;;;1.80;;
65358;SDS011;52491;45.900;6.346;2022-08-19T03:09:23;2.53;;;1.90;;
65358;SDS011;52491;45.900;6.346;2022-08-19T03:11:48;2.40;;;2.20;;
65358;SDS011;52491;45.900;6.346;2022-08-19T03:14:15;2.85;;;1.90;;
65358;SDS011;52491;45.900;6.346;2022-08-19T03:16:43;2.22;;;2.13;;
65358;SDS011;52491;45.900;6.346;2022-08-19T03:19:12;2.70;;;1.50;;
65358;SDS011;52491;45.900;6.346;2022-08-19T03:21:39;2.70;;;1.95;;
65358;SDS011;52491;45.900;6.346;2022-08-19T03:24:06;2.42;;;2.22;;
65358;SDS011;52491;45.900;6.346;2022-08-19T03:26:33;2.58;;;2.20;;
65358;SDS011;52491;45.900;6.346;2022-08-19T03:29:02;1.95;;;1.75;;
65358;SDS011;52491;45.900;6.346;2022-08-19T03:31:29;2.45;;;2.00;;
65358;SDS011;52491;45.900;6.346;2022-08-19T03:33:58;2.45;;;1.80;;
65358;SDS011;52491;45.900;6.346;2022-08-19T03:36:24;2.28;;;2.08;;
65358;SDS011;52491;45.900;6.346;2022-08-19T03:38:53;2.42;;;1.85;;
65358;SDS011;52491;45.900;6.346;2022-08-19T03:41:22;1.95;;;1.80;;
65358;SDS011;52491;45.900;6.346;2022-08-19T03:43:51;2.13;;;1.88;;
65358;SDS011;52491;45.900;6.346;2022-08-19T03:46:19;3.13;;;2.33;;
65358;SDS011;52491;45.900;6.346;2022-08-19T03:48:48;2.50;;;2.30;;
65358;SDS011;52491;45.900;6.346;2022-08-19T03:51:22;2.53;;;2.33;;
65358;SDS011;52491;45.900;6.346;2022-08-19T03:53:57;2.03;;;1.80;;
65358;SDS011;52491;45.900;6.346;2022-08-19T03:56:30;1.77;;;1.67;;
65358;SDS011;52491;45.900;6.346;2022-08-19T03:58:58;2.00;;;1.88;;
65358;SDS011;52491;45.900;6.346;2022-08-19T04:01:28;2.47;;;2.28;;
65358;SDS011;52491;45.900;6.346;2022-08-19T04:03:57;2.47;;;2.28;;
65358;SDS011;52491;45.900;6.346;2022-08-19T04:06:28;2.10;;;2.00;;
65358;SDS011;52491;45.900;6.346;2022-08-19T04:08:57;1.88;;;1.77;;
65358;SDS011;52491;45.900;6.346;2022-08-19T04:11:28;1.80;;;1.70;;
65358;SDS011;52491;45.900;6.346;2022-08-19T04:13:56;2.03;;;1.83;;
65358;SDS011;52491;45.900;6.346;2022-08-19T04:16:24;1.85;;;1.75;;
65358;SDS011;52491;45.900;6.346;2022-08-19T04:18:54;4.18;;;2.45;;
65358;SDS011;52491;45.900;6.346;2022-08-19T04:21:24;2.05;;;1.80;;
65358;SDS011;52491;45.900;6.346;2022-08-19T04:23:52;2.15;;;2.05;;
65358;SDS011;52491;45.900;6.346;2022-08-19T04:26:25;1.73;;;1.63;;
65358;SDS011;52491;45.900;6.346;2022-08-19T04:28:53;1.83;;;1.70;;
65358;SDS011;52491;45.900;6.346;2022-08-19T04:31:20;2.08;;;1.98;;
65358;SDS011;52491;45.900;6.346;2022-08-19T04:33:47;2.33;;;2.13;;
65358;SDS011;52491;45.900;6.346;2022-08-19T04:36:24;1.90;;;1.80;;
65358;SDS011;52491;45.900;6.346;2022-08-19T04:39:01;2.72;;;1.98;;
65358;SDS011;52491;45.900;6.346;2022-08-19T04:41:30;1.60;;;1.50;;
65358;SDS011;52491;45.900;6.346;2022-08-19T04:44:15;1.50;;;1.40;;
65358;SDS011;52491;45.900;6.346;2022-08-19T04:46:44;1.85;;;1.65;;
65358;SDS011;52491;45.900;6.346;2022-08-19T04:49:10;2.05;;;1.85;;
65358;SDS011;52491;45.900;6.346;2022-08-19T04:51:36;3.30;;;2.30;;
65358;SDS011;52491;45.900;6.346;2022-08-19T04:54:05;3.28;;;1.63;;
65358;SDS011;52491;45.900;6.346;2022-08-19T04:56:30;2.42;;;1.95;;
65358;SDS011;52491;45.900;6.346;2022-08-19T04:58:56;1.88;;;1.73;;
65358;SDS011;52491;45.900;6.346;2022-08-19T05:01:23;2.17;;;1.75;;
65358;SDS011;52491;45.900;6.346;2022-08-19T05:03:51;4.38;;;2.22;;
65358;SDS011;52491;45.900;6.346;2022-08-19T05:06:18;2.95;;;1.65;;
65358;SDS011;52491;45.900;6.346;2022-08-19T05:08:45;2.42;;;1.80;;
65358;SDS011;52491;45.900;6.346;2022-08-19T05:11:22;2.35;;;2.15;;
65358;SDS011;52491;45.900;6.346;2022-08-19T05:13:50;3.25;;;1.83;;
65358;SDS011;52491;45.900;6.346;2022-08-19T05:16:18;2.88;;;2.45;;
65358;SDS011;52491;45.900;6.346;2022-08-19T05:18:46;1.98;;;1.77;;
65358;SDS011;52491;45.900;6.346;2022-08-19T05:21:31;2.42;;;2.22;;
65358;SDS011;52491;45.900;6.346;2022-08-19T05:24:16;2.60;;;2.08;;
65358;SDS011;52491;45.900;6.346;2022-08-19T05:26:44;6.28;;;2.50;;
65358;SDS011;52491;45.900;6.346;2022-08-19T05:29:13;2.85;;;1.98;;
65358;SDS011;52491;45.900;6.346;2022-08-19T05:31:43;4.30;;;2.05;;
65358;SDS011;52491;45.900;6.346;2022-08-19T05:34:09;3.35;;;1.90;;
65358;SDS011;52491;45.900;6.346;2022-08-19T05:36:46;9.77;;;1.77;;
65358;SDS011;52491;45.900;6.346;2022-08-19T05:39:17;4.93;;;1.92;;
65358;SDS011;52491;45.900;6.346;2022-08-19T05:41:46;4.50;;;1.90;;
65358;SDS011;52491;45.900;6.346;2022-08-19T05:44:13;1.80;;;1.42;;
65358;SDS011;52491;45.900;6.346;2022-08-19T05:46:39;1.17;;;1.08;;
65358;SDS011;52491;45.900;6.346;2022-08-19T05:49:06;2.75;;;1.50;;
65358;SDS011;52491;45.900;6.346;2022-08-19T05:51:33;3.95;;;1.95;;
65358;SDS011;52491;45.900;6.346;2022-08-19T05:54:01;7.20;;;1.58;;
65358;SDS011;52491;45.900;6.346;2022-08-19T05:56:29;4.18;;;1.90;;
65358;SDS011;52491;45.900;6.346;2022-08-19T05:58:55;7.85;;;2.20;;
65358;SDS011;52491;45.900;6.346;2022-08-19T06:01:21;3.78;;;1.92;;
65358;SDS011;52491;45.900;6.346;2022-08-19T06:03:47;2.20;;;1.83;;
65358;SDS011;52491;45.900;6.346;2022-08-19T06:06:14;2.88;;;1.80;;
65358;SDS011;52491;45.900;6.346;2022-08-19T06:08:40;2.05;;;1.70;;
65358;SDS011;52491;45.900;6.346;2022-08-19T06:11:20;1.70;;;1.60;;
65358;SDS011;52491;45.900;6.346;2022-08-19T06:13:49;3.83;;;2.03;;
65358;SDS011;52491;45.900;6.346;2022-08-19T06:16:20;3.00;;;1.95;;
65358;SDS011;52491;45.900;6.346;2022-08-19T06:18:50;2.47;;;1.80;;
65358;SDS011;52491;45.900;6.346;2022-08-19T06:21:20;6.28;;;1.80;;
65358;SDS011;52491;45.900;6.346;2022-08-19T06:23:48;3.88;;;1.70;;
65358;SDS011;52491;45.900;6.346;2022-08-19T06:26:14;5.68;;;1.42;;
65358;SDS011;52491;45.900;6.346;2022-08-19T06:28:41;4.35;;;1.85;;
65358;SDS011;52491;45.900;6.346;2022-08-19T06:31:12;3.88;;;2.10;;
65358;SDS011;52491;45.900;6.346;2022-08-19T06:33:46;2.38;;;1.52;;
65358;SDS011;52491;45.900;6.346;2022-08-19T06:36:20;2.05;;;1.33;;
65358;SDS011;52491;45.900;6.346;2022-08-19T06:38:54;4.43;;;1.33;;
65358;SDS011;52491;45.900;6.346;2022-08-19T06:41:22;4.60;;;1.58;;
65358;SDS011;52491;45.900;6.346;2022-08-19T06:43:47;8.50;;;1.52;;
65358;SDS011;52491;45.900;6.346;2022-08-19T06:46:14;1.88;;;1.30;;
65358;SDS011;52491;45.900;6.346;2022-08-19T06:48:42;3.05;;;1.40;;
65358;SDS011;52491;45.900;6.346;2022-08-19T06:51:09;1.45;;;1.30;;
65358;SDS011;52491;45.900;6.346;2022-08-19T06:53:36;1.77;;;1.25;;
65358;SDS011;52491;45.900;6.346;2022-08-19T06:56:02;9.90;;;2.25;;
65358;SDS011;52491;45.900;6.346;2022-08-19T06:58:31;2.88;;;1.45;;
65358;SDS011;52491;45.900;6.346;2022-08-19T07:00:58;1.20;;;1.10;;
65358;SDS011;52491;45.900;6.346;2022-08-19T07:03:27;2.72;;;1.60;;
65358;SDS011;52491;45.900;6.346;2022-08-19T07:05:55;3.22;;;1.58;;
65358;SDS011;52491;45.900;6.346;2022-08-19T07:08:21;2.33;;;1.73;;
65358;SDS011;52491;45.900;6.346;2022-08-19T07:10:46;2.25;;;1.25;;
65358;SDS011;52491;45.900;6.346;2022-08-19T07:13:14;4.72;;;1.30;;
65358;SDS011;52491;45.900;6.346;2022-08-19T07:15:39;4.97;;;1.17;;
65358;SDS011;52491;45.900;6.346;2022-08-19T07:18:05;2.17;;;1.65;;
65358;SDS011;52491;45.900;6.346;2022-08-19T07:20:31;1.45;;;1.17;;
65358;SDS011;52491;45.900;6.346;2022-08-19T07:22:57;5.53;;;1.35;;
65358;SDS011;52491;45.900;6.346;2022-08-19T07:25:23;2.55;;;0.93;;
65358;SDS011;52491;45.900;6.346;2022-08-19T07:27:49;2.20;;;1.20;;
65358;SDS011;52491;45.900;6.346;2022-08-19T07:30:15;2.95;;;1.15;;
65358;SDS011;52491;45.900;6.346;2022-08-19T07:32:42;2.17;;;1.70;;
65358;SDS011;52491;45.900;6.346;2022-08-19T07:35:08;1.30;;;1.20;;
65358;SDS011;52491;45.900;6.346;2022-08-19T07:37:34;2.13;;;1.23;;
65358;SDS011;52491;45.900;6.346;2022-08-19T07:40:03;1.20;;;1.08;;
65358;SDS011;52491;45.900;6.346;2022-08-19T07:42:29;2.22;;;1.50;;
65358;SDS011;52491;45.900;6.346;2022-08-19T07:44:55;3.95;;;1.45;;
65358;SDS011;52491;45.900;6.346;2022-08-19T07:47:21;2.50;;;1.40;;
65358;SDS011;52491;45.900;6.346;2022-08-19T07:49:47;1.20;;;1.10;;
65358;SDS011;52491;45.900;6.346;2022-08-19T07:52:13;2.75;;;1.42;;
65358;SDS011;52491;45.900;6.346;2022-08-19T07:54:39;1.10;;;1.00;;
65358;SDS011;52491;45.900;6.346;2022-08-19T07:57:06;0.90;;;0.80;;
65358;SDS011;52491;45.900;6.346;2022-08-19T07:59:33;2.05;;;1.00;;
65358;SDS011;52491;45.900;6.346;2022-08-19T08:01:59;3.85;;;1.20;;
65358;SDS011;52491;45.900;6.346;2022-08-19T08:04:25;2.80;;;1.40;;
65358;SDS011;52491;45.900;6.346;2022-08-19T08:09:36;1.58;;;1.48;;
65358;SDS011;52491;45.900;6.346;2022-08-19T08:12:05;1.25;;;1.13;;
65358;SDS011;52491;45.900;6.346;2022-08-19T08:14:45;2.13;;;1.10;;
65358;SDS011;52491;45.900;6.346;2022-08-19T08:17:13;1.40;;;1.30;;
65358;SDS011;52491;45.900;6.346;2022-08-19T08:19:42;1.63;;;0.90;;
65358;SDS011;52491;45.900;6.346;2022-08-19T08:22:10;1.38;;;1.20;;
65358;SDS011;52491;45.900;6.346;2022-08-19T08:25:00;1.55;;;0.95;;
65358;SDS011;52491;45.900;6.346;2022-08-19T08:27:28;1.60;;;1.17;;
65358;SDS011;52491;45.900;6.346;2022-08-19T08:29:56;3.28;;;1.10;;
65358;SDS011;52491;45.900;6.346;2022-08-19T08:32:22;1.67;;;1.05;;
65358;SDS011;52491;45.900;6.346;2022-08-19T08:34:48;2.42;;;1.00;;
65358;SDS011;52491;45.900;6.346;2022-08-19T08:37:13;2.10;;;0.88;;
65358;SDS011;52491;45.900;6.346;2022-08-19T08:39:39;3.83;;;0.80;;
65358;SDS011;52491;45.900;6.346;2022-08-19T08:42:19;1.15;;;0.80;;
65358;SDS011;52491;45.900;6.346;2022-08-19T08:45:03;1.00;;;0.95;;
65358;SDS011;52491;45.900;6.346;2022-08-19T08:47:37;0.95;;;0.90;;
65358;SDS011;52491;45.900;6.346;2022-08-19T08:50:07;1.67;;;1.15;;
65358;SDS011;52491;45.900;6.346;2022-08-19T08:52:45;2.35;;;0.70;;
65358;SDS011;52491;45.900;6.346;2022-08-19T08:55:21;1.63;;;1.25;;
65358;SDS011;52491;45.900;6.346;2022-08-19T08:57:53;2.67;;;0.98;;
65358;SDS011;52491;45.900;6.346;2022-08-19T09:00:34;2.33;;;0.98;;
65358;SDS011;52491;45.900;6.346;2022-08-19T09:03:03;3.58;;;1.33;;
65358;SDS011;52491;45.900;6.346;2022-08-19T09:05:38;1.50;;;1.10;;
65358;SDS011;52491;45.900;6.346;2022-08-19T09:08:25;1.23;;;0.63;;
65358;SDS011;52491;45.900;6.346;2022-08-19T09:10:55;1.90;;;0.98;;
65358;SDS011;52491;45.900;6.346;2022-08-19T09:13:28;1.27;;;0.90;;
65358;SDS011;52491;45.900;6.346;2022-08-19T09:16:05;1.58;;;0.95;;
65358;SDS011;52491;45.900;6.346;2022-08-19T09:18:43;1.42;;;0.95;;
65358;SDS011;52491;45.900;6.346;2022-08-19T09:21:12;1.38;;;0.93;;
65358;SDS011;52491;45.900;6.346;2022-08-19T09:23:38;0.73;;;0.73;;
65358;SDS011;52491;45.900;6.346;2022-08-19T09:26:11;1.35;;;0.80;;
65358;SDS011;52491;45.900;6.346;2022-08-19T09:28:40;2.75;;;0.90;;
65358;SDS011;52491;45.900;6.346;2022-08-19T09:31:11;2.00;;;0.70;;
65358;SDS011;52491;45.900;6.346;2022-08-19T09:33:39;0.95;;;0.85;;
65358;SDS011;52491;45.900;6.346;2022-08-19T09:36:06;1.83;;;1.05;;
65358;SDS011;52491;45.900;6.346;2022-08-19T09:38:33;0.70;;;0.65;;
65358;SDS011;52491;45.900;6.346;2022-08-19T09:41:10;0.90;;;0.70;;
65358;SDS011;52491;45.900;6.346;2022-08-19T09:43:38;1.00;;;0.60;;
65358;SDS011;52491;45.900;6.346;2022-08-19T09:46:05;1.38;;;0.70;;
65358;SDS011;52491;45.900;6.346;2022-08-19T09:48:32;0.88;;;0.88;;
65358;SDS011;52491;45.900;6.346;2022-08-19T09:51:05;3.25;;;0.90;;
65358;SDS011;52491;45.900;6.346;2022-08-19T09:53:33;0.70;;;0.70;;
65358;SDS011;52491;45.900;6.346;2022-08-19T09:55:59;0.60;;;0.60;;
65358;SDS011;52491;45.900;6.346;2022-08-19T09:58:25;0.70;;;0.70;;
65358;SDS011;52491;45.900;6.346;2022-08-19T10:00:56;3.05;;;0.70;;
65358;SDS011;52491;45.900;6.346;2022-08-19T10:03:23;1.13;;;0.80;;
65358;SDS011;52491;45.900;6.346;2022-08-19T10:05:50;0.93;;;0.70;;
65358;SDS011;52491;45.900;6.346;2022-08-19T10:08:20;0.95;;;0.90;;
65358;SDS011;52491;45.900;6.346;2022-08-19T10:10:53;0.93;;;0.85;;
65358;SDS011;52491;45.900;6.346;2022-08-19T10:13:20;1.33;;;0.82;;
65358;SDS011;52491;45.900;6.346;2022-08-19T10:15:48;1.85;;;0.98;;
65358;SDS011;52491;45.900;6.346;2022-08-19T10:18:18;0.90;;;0.90;;
65358;SDS011;52491;45.900;6.346;2022-08-19T10:20:46;3.13;;;0.70;;
65358;SDS011;52491;45.900;6.346;2022-08-19T10:23:13;2.47;;;0.60;;
65358;SDS011;52491;45.900;6.346;2022-08-19T10:25:40;1.70;;;0.90;;
65358;SDS011;52491;45.900;6.346;2022-08-19T10:28:07;0.80;;;0.80;;
65358;SDS011;52491;45.900;6.346;2022-08-19T10:30:36;1.35;;;0.75;;
65358;SDS011;52491;45.900;6.346;2022-08-19T10:33:03;1.02;;;0.73;;
65358;SDS011;52491;45.900;6.346;2022-08-19T10:35:29;1.27;;;1.15;;
65358;SDS011;52491;45.900;6.346;2022-08-19T10:37:56;2.00;;;0.93;;
65358;SDS011;52491;45.900;6.346;2022-08-19T10:40:26;2.42;;;0.70;;
65358;SDS011;52491;45.900;6.346;2022-08-19T10:42:56;3.30;;;0.93;;
65358;SDS011;52491;45.900;6.346;2022-08-19T10:45:22;3.38;;;0.90;;
65358;SDS011;52491;45.900;6.346;2022-08-19T10:47:50;1.40;;;1.15;;
65358;SDS011;52491;45.900;6.346;2022-08-19T10:50:15;0.95;;;0.60;;
65358;SDS011;52491;45.900;6.346;2022-08-19T10:53:03;0.60;;;0.60;;
65358;SDS011;52491;45.900;6.346;2022-08-19T10:55:35;1.73;;;0.98;;
65358;SDS011;52491;45.900;6.346;2022-08-19T10:58:20;1.05;;;0.70;;
65358;SDS011;52491;45.900;6.346;2022-08-19T11:00:53;4.63;;;1.92;;
65358;SDS011;52491;45.900;6.346;2022-08-19T11:03:21;1.08;;;0.73;;
65358;SDS011;52491;45.900;6.346;2022-08-19T11:05:53;0.90;;;0.90;;
65358;SDS011;52491;45.900;6.346;2022-08-19T11:08:22;2.75;;;0.80;;
65358;SDS011;52491;45.900;6.346;2022-08-19T11:10:50;2.28;;;0.85;;
65358;SDS011;52491;45.900;6.346;2022-08-19T11:13:26;14.57;;;2.05;;
65358;SDS011;52491;45.900;6.346;2022-08-19T11:15:59;1.73;;;1.05;;
65358;SDS011;52491;45.900;6.346;2022-08-19T11:18:27;3.75;;;1.10;;
65358;SDS011;52491;45.900;6.346;2022-08-19T11:20:53;3.20;;;0.98;;
65358;SDS011;52491;45.900;6.346;2022-08-19T11:23:19;2.83;;;1.20;;
65358;SDS011;52491;45.900;6.346;2022-08-19T11:25:45;4.15;;;1.35;;
65358;SDS011;52491;45.900;6.346;2022-08-19T11:28:12;1.80;;;1.10;;
65358;SDS011;52491;45.900;6.346;2022-08-19T11:30:38;5.60;;;1.10;;
65358;SDS011;52491;45.900;6.346;2022-08-19T11:33:04;1.42;;;1.10;;
65358;SDS011;52491;45.900;6.346;2022-08-19T11:35:30;2.55;;;1.05;;
65358;SDS011;52491;45.900;6.346;2022-08-19T11:37:56;1.35;;;0.80;;
65358;SDS011;52491;45.900;6.346;2022-08-19T11:40:26;1.63;;;0.90;;
65358;SDS011;52491;45.900;6.346;2022-08-19T11:42:52;4.15;;;1.25;;
65358;SDS011;52491;45.900;6.346;2022-08-19T11:45:21;2.72;;;1.02;;
65358;SDS011;52491;45.900;6.346;2022-08-19T11:47:48;0.93;;;0.77;;
65358;SDS011;52491;45.900;6.346;2022-08-19T11:50:14;1.58;;;0.90;;
65358;SDS011;52491;45.900;6.346;2022-08-19T11:52:41;1.83;;;1.42;;
65358;SDS011;52491;45.900;6.346;2022-08-19T11:55:07;2.00;;;0.90;;
65358;SDS011;52491;45.900;6.346;2022-08-19T11:57:33;1.42;;;1.33;;
65358;SDS011;52491;45.900;6.346;2022-08-19T11:59:59;3.58;;;1.02;;
65358;SDS011;52491;45.900;6.346;2022-08-19T12:02:24;3.70;;;1.23;;
65358;SDS011;52491;45.900;6.346;2022-08-19T12:04:50;1.75;;;1.33;;
65358;SDS011;52491;45.900;6.346;2022-08-19T12:07:16;1.75;;;1.65;;
65358;SDS011;52491;45.900;6.346;2022-08-19T12:09:42;6.00;;;1.60;;
65358;SDS011;52491;45.900;6.346;2022-08-19T12:12:07;1.20;;;1.10;;
65358;SDS011;52491;45.900;6.346;2022-08-19T12:14:34;2.95;;;1.33;;
65358;SDS011;52491;45.900;6.346;2022-08-19T12:17:00;2.35;;;1.50;;
65358;SDS011;52491;45.900;6.346;2022-08-19T12:19:27;1.65;;;1.23;;
65358;SDS011;52491;45.900;6.346;2022-08-19T12:21:58;1.70;;;1.30;;
65358;SDS011;52491;45.900;6.346;2022-08-19T12:24:26;1.30;;;1.20;;
65358;SDS011;52491;45.900;6.346;2022-08-19T12:26:52;1.35;;;1.25;;
65358;SDS011;52491;45.900;6.346;2022-08-19T12:29:20;4.65;;;1.42;;
65358;SDS011;52491;45.900;6.346;2022-08-19T12:31:46;1.58;;;1.20;;
65358;SDS011;52491;45.900;6.346;2022-08-19T12:34:12;3.45;;;1.67;;
65358;SDS011;52491;45.900;6.346;2022-08-19T12:36:37;1.83;;;1.30;;
65358;SDS011;52491;45.900;6.346;2022-08-19T12:39:03;1.23;;;1.05;;
65358;SDS011;52491;45.900;6.346;2022-08-19T12:41:29;2.53;;;1.45;;
65358;SDS011;52491;45.900;6.346;2022-08-19T12:43:54;2.00;;;1.45;;
65358;SDS011;52491;45.900;6.346;2022-08-19T12:46:20;1.45;;;1.35;;
65358;SDS011;52491;45.900;6.346;2022-08-19T12:48:46;1.75;;;1.65;;
65358;SDS011;52491;45.900;6.346;2022-08-19T12:51:13;1.27;;;1.17;;
65358;SDS011;52491;45.900;6.346;2022-08-19T12:53:44;3.72;;;1.67;;
65358;SDS011;52491;45.900;6.346;2022-08-19T12:56:10;1.75;;;1.65;;
65358;SDS011;52491;45.900;6.346;2022-08-19T12:58:36;2.00;;;1.90;;
65358;SDS011;52491;45.900;6.346;2022-08-19T13:01:06;5.13;;;1.85;;
65358;SDS011;52491;45.900;6.346;2022-08-19T13:03:41;2.22;;;1.73;;
65358;SDS011;52491;45.900;6.346;2022-08-19T13:06:08;3.08;;;2.20;;
65358;SDS011;52491;45.900;6.346;2022-08-19T13:08:35;1.98;;;1.80;;
65358;SDS011;52491;45.900;6.346;2022-08-19T13:11:10;3.75;;;1.73;;
65358;SDS011;52491;45.900;6.346;2022-08-19T13:13:41;2.00;;;1.77;;
65358;SDS011;52491;45.900;6.346;2022-08-19T13:16:08;2.20;;;2.05;;
65358;SDS011;52491;45.900;6.346;2022-08-19T13:18:36;2.17;;;1.77;;
65358;SDS011;52491;45.900;6.346;2022-08-19T13:21:03;1.95;;;1.83;;
65358;SDS011;52491;45.900;6.346;2022-08-19T13:23:34;2.35;;;2.15;;
65358;SDS011;52491;45.900;6.346;2022-08-19T13:26:03;2.10;;;2.00;;
65358;SDS011;52491;45.900;6.346;2022-08-19T13:28:31;2.67;;;2.45;;
65358;SDS011;52491;45.900;6.346;2022-08-19T13:31:18;3.17;;;2.28;;
65358;SDS011;52491;45.900;6.346;2022-08-19T13:34:03;3.05;;;2.25;;
65358;SDS011;52491;45.900;6.346;2022-08-19T13:36:28;5.07;;;2.45;;
65358;SDS011;52491;45.900;6.346;2022-08-19T13:38:54;4.93;;;2.20;;
65358;SDS011;52491;45.900;6.346;2022-08-19T13:41:21;3.85;;;2.50;;
65358;SDS011;52491;45.900;6.346;2022-08-19T13:43:47;2.15;;;2.00;;
65358;SDS011;52491;45.900;6.346;2022-08-19T13:46:14;3.90;;;2.45;;
65358;SDS011;52491;45.900;6.346;2022-08-19T13:48:40;3.22;;;2.50;;
65358;SDS011;52491;45.900;6.346;2022-08-19T13:51:06;2.85;;;2.65;;
65358;SDS011;52491;45.900;6.346;2022-08-19T13:53:35;3.00;;;2.67;;
65358;SDS011;52491;45.900;6.346;2022-08-19T13:56:06;3.15;;;2.80;;
65358;SDS011;52491;45.900;6.346;2022-08-19T13:58:32;2.85;;;2.58;;
65358;SDS011;52491;45.900;6.346;2022-08-19T14:00:58;5.90;;;2.58;;
65358;SDS011;52491;45.900;6.346;2022-08-19T14:03:24;3.88;;;3.30;;
65358;SDS011;52491;45.900;6.346;2022-08-19T14:05:50;3.25;;;3.05;;
65358;SDS011;52491;45.900;6.346;2022-08-19T14:08:16;3.97;;;2.63;;
65358;SDS011;52491;45.900;6.346;2022-08-19T14:10:43;2.60;;;2.40;;
65358;SDS011;52491;45.900;6.346;2022-08-19T14:13:12;2.83;;;2.50;;
65358;SDS011;52491;45.900;6.346;2022-08-19T14:15:39;3.70;;;3.08;;
65358;SDS011;52491;45.900;6.346;2022-08-19T14:18:05;4.00;;;2.30;;
65358;SDS011;52491;45.900;6.346;2022-08-19T14:20:33;3.20;;;3.00;;
65358;SDS011;52491;45.900;6.346;2022-08-19T14:22:59;3.42;;;2.88;;
65358;SDS011;52491;45.900;6.346;2022-08-19T14:25:26;3.35;;;3.05;;
65358;SDS011;52491;45.900;6.346;2022-08-19T14:27:54;2.88;;;2.67;;
65358;SDS011;52491;45.900;6.346;2022-08-19T14:30:21;3.25;;;2.97;;
65358;SDS011;52491;45.900;6.346;2022-08-19T14:32:50;5.15;;;2.65;;
65358;SDS011;52491;45.900;6.346;2022-08-19T14:35:16;3.05;;;2.85;;
65358;SDS011;52491;45.900;6.346;2022-08-19T14:37:43;4.05;;;3.55;;
65358;SDS011;52491;45.900;6.346;2022-08-19T14:40:10;4.10;;;3.70;;
65358;SDS011;52491;45.900;6.346;2022-08-19T14:42:36;6.00;;;3.00;;
65358;SDS011;52491;45.900;6.346;2022-08-19T14:45:02;3.88;;;2.80;;
65358;SDS011;52491;45.900;6.346;2022-08-19T14:47:30;4.60;;;3.20;;
65358;SDS011;52491;45.900;6.346;2022-08-19T14:49:56;5.93;;;2.90;;
65358;SDS011;52491;45.900;6.346;2022-08-19T14:52:21;3.40;;;3.08;;
65358;SDS011;52491;45.900;6.346;2022-08-19T14:54:47;5.22;;;3.10;;
65358;SDS011;52491;45.900;6.346;2022-08-19T14:57:13;4.30;;;3.78;;
65358;SDS011;52491;45.900;6.346;2022-08-19T14:59:41;3.72;;;3.42;;